עמוד ראשי
METAR-TAF:

METAR-TAF

שדות תעופה :

Marianna Municipal Airport

Marianna, פלורידה, ארצות הברית

קו רוחב: 30-50-12N, קו אורך: 085-11-01W, גובה: 34מטר

תצפית מזג אוויר נוכחית

הדו"ח נערך לפני 1 שעות ו 3דקות, בשעה 18:53 UTC
רוח 14קשר מכיוון מזרח עם משבים עד 21קשר
טמפרטורת 33 צלסיוס
לחות 49%
לחץ 1017 hPa
ראות: 16.1קילומטר
מעט עננים בגובה 4500רגל

METAR: KMAI 171853Z AUTO 08014G21KT 10SM FEW045 33/21 A3003 RMK AO2 SLP167 T03330206

זמן: 14:56 (19:56 UTC)


TAF: חסר

תצפיות ותחזיות מזג אוויר לגבי יותר מ- 4,000 שדות תעופה ברחבי העולם. דוחות METAR ו- TAF.

התחנות הזמינות מסומנות בנקודות צהובות ואדומות על גבי המפה.

העבר את העכבר לנקודה הצבעונית על מנת לראות את שם התחנה.

לאחר מכן, לחץ כדי לראות את תוכן ואת תחזיות מזג האוויר.

כדי לשנות את המפה: לחץ על הכפתורים הירוקים עם הפלוס השחור כדי להתקרב; על הכפתור הירוק עם המקף כדי להתרחק; או בחיצים הירוקים למפות סמוכות.


METAR-TAF: